sensor_id;sensor_type;location;lat;lon;timestamp;P1;durP1;ratioP1;P2;durP2;ratioP2
20844;SDS011;10583;49.084;8.646;2023-07-29T00:01:08;2.00;;;2.00;;
20844;SDS011;10583;49.084;8.646;2023-07-29T00:03:35;2.00;;;2.00;;
20844;SDS011;10583;49.084;8.646;2023-07-29T00:06:01;2.00;;;2.00;;
20844;SDS011;10583;49.084;8.646;2023-07-29T00:08:29;2.10;;;2.10;;
20844;SDS011;10583;49.084;8.646;2023-07-29T00:10:56;1.70;;;1.70;;
20844;SDS011;10583;49.084;8.646;2023-07-29T00:13:23;2.10;;;2.10;;
20844;SDS011;10583;49.084;8.646;2023-07-29T00:15:49;1.90;;;1.90;;
20844;SDS011;10583;49.084;8.646;2023-07-29T00:18:16;2.30;;;2.30;;
20844;SDS011;10583;49.084;8.646;2023-07-29T00:20:43;2.10;;;2.10;;
20844;SDS011;10583;49.084;8.646;2023-07-29T00:23:10;1.90;;;1.90;;
20844;SDS011;10583;49.084;8.646;2023-07-29T00:25:38;2.37;;;2.37;;
20844;SDS011;10583;49.084;8.646;2023-07-29T00:28:05;2.17;;;2.17;;
20844;SDS011;10583;49.084;8.646;2023-07-29T00:30:31;2.20;;;2.20;;
20844;SDS011;10583;49.084;8.646;2023-07-29T00:32:58;1.77;;;1.77;;
20844;SDS011;10583;49.084;8.646;2023-07-29T00:35:25;2.30;;;2.30;;
20844;SDS011;10583;49.084;8.646;2023-07-29T00:37:51;1.93;;;1.93;;
20844;SDS011;10583;49.084;8.646;2023-07-29T00:40:19;2.17;;;2.17;;
20844;SDS011;10583;49.084;8.646;2023-07-29T00:42:49;1.83;;;1.83;;
20844;SDS011;10583;49.084;8.646;2023-07-29T00:45:16;1.63;;;1.63;;
20844;SDS011;10583;49.084;8.646;2023-07-29T00:47:43;1.93;;;1.93;;
20844;SDS011;10583;49.084;8.646;2023-07-29T00:50:10;1.90;;;1.90;;
20844;SDS011;10583;49.084;8.646;2023-07-29T00:52:38;2.00;;;2.00;;
20844;SDS011;10583;49.084;8.646;2023-07-29T00:55:05;2.33;;;2.33;;
20844;SDS011;10583;49.084;8.646;2023-07-29T00:57:33;2.10;;;2.10;;
20844;SDS011;10583;49.084;8.646;2023-07-29T01:00:03;1.80;;;1.80;;
20844;SDS011;10583;49.084;8.646;2023-07-29T01:02:30;2.20;;;2.20;;
20844;SDS011;10583;49.084;8.646;2023-07-29T01:04:58;2.00;;;2.00;;
20844;SDS011;10583;49.084;8.646;2023-07-29T01:07:27;1.67;;;1.67;;
20844;SDS011;10583;49.084;8.646;2023-07-29T01:10:00;2.00;;;2.00;;
20844;SDS011;10583;49.084;8.646;2023-07-29T01:12:33;2.20;;;2.20;;
20844;SDS011;10583;49.084;8.646;2023-07-29T01:15:09;1.80;;;1.80;;
20844;SDS011;10583;49.084;8.646;2023-07-29T01:17:40;1.70;;;1.70;;
20844;SDS011;10583;49.084;8.646;2023-07-29T01:20:10;1.80;;;1.80;;
20844;SDS011;10583;49.084;8.646;2023-07-29T01:22:40;1.67;;;1.67;;
20844;SDS011;10583;49.084;8.646;2023-07-29T01:25:08;1.80;;;1.80;;
20844;SDS011;10583;49.084;8.646;2023-07-29T01:27:35;1.90;;;1.90;;
20844;SDS011;10583;49.084;8.646;2023-07-29T01:30:02;1.57;;;1.57;;
20844;SDS011;10583;49.084;8.646;2023-07-29T01:32:32;2.07;;;2.07;;
20844;SDS011;10583;49.084;8.646;2023-07-29T01:35:09;2.00;;;2.00;;
20844;SDS011;10583;49.084;8.646;2023-07-29T01:37:41;1.80;;;1.80;;
20844;SDS011;10583;49.084;8.646;2023-07-29T01:40:14;1.90;;;1.90;;
20844;SDS011;10583;49.084;8.646;2023-07-29T01:42:41;1.67;;;1.67;;
20844;SDS011;10583;49.084;8.646;2023-07-29T01:45:10;1.33;;;1.33;;
20844;SDS011;10583;49.084;8.646;2023-07-29T01:47:37;1.60;;;1.60;;
20844;SDS011;10583;49.084;8.646;2023-07-29T01:50:06;1.60;;;1.60;;
20844;SDS011;10583;49.084;8.646;2023-07-29T01:52:33;1.37;;;1.37;;
20844;SDS011;10583;49.084;8.646;2023-07-29T01:55:00;1.50;;;1.50;;
20844;SDS011;10583;49.084;8.646;2023-07-29T01:57:28;1.40;;;1.40;;
20844;SDS011;10583;49.084;8.646;2023-07-29T01:59:55;1.40;;;1.40;;
20844;SDS011;10583;49.084;8.646;2023-07-29T02:02:21;1.97;;;1.97;;
20844;SDS011;10583;49.084;8.646;2023-07-29T02:04:48;1.70;;;1.70;;
20844;SDS011;10583;49.084;8.646;2023-07-29T02:07:17;1.43;;;1.43;;
20844;SDS011;10583;49.084;8.646;2023-07-29T02:09:44;1.30;;;1.30;;
20844;SDS011;10583;49.084;8.646;2023-07-29T02:12:10;1.23;;;1.23;;
20844;SDS011;10583;49.084;8.646;2023-07-29T02:14:38;1.80;;;1.80;;
20844;SDS011;10583;49.084;8.646;2023-07-29T02:17:05;1.53;;;1.53;;
20844;SDS011;10583;49.084;8.646;2023-07-29T02:19:32;1.60;;;1.60;;
20844;SDS011;10583;49.084;8.646;2023-07-29T02:21:58;1.70;;;1.70;;
20844;SDS011;10583;49.084;8.646;2023-07-29T02:24:25;1.77;;;1.77;;
20844;SDS011;10583;49.084;8.646;2023-07-29T02:26:52;1.50;;;1.50;;
20844;SDS011;10583;49.084;8.646;2023-07-29T02:29:19;1.80;;;1.80;;
20844;SDS011;10583;49.084;8.646;2023-07-29T02:31:47;1.90;;;1.90;;
20844;SDS011;10583;49.084;8.646;2023-07-29T02:34:14;1.50;;;1.50;;
20844;SDS011;10583;49.084;8.646;2023-07-29T02:36:41;1.13;;;1.13;;
20844;SDS011;10583;49.084;8.646;2023-07-29T02:39:07;1.80;;;1.80;;
20844;SDS011;10583;49.084;8.646;2023-07-29T02:41:34;1.60;;;1.60;;
20844;SDS011;10583;49.084;8.646;2023-07-29T02:44:01;1.40;;;1.40;;
20844;SDS011;10583;49.084;8.646;2023-07-29T02:46:28;1.27;;;1.27;;
20844;SDS011;10583;49.084;8.646;2023-07-29T02:48:56;1.60;;;1.60;;
20844;SDS011;10583;49.084;8.646;2023-07-29T02:51:23;1.90;;;1.90;;
20844;SDS011;10583;49.084;8.646;2023-07-29T02:53:49;1.47;;;1.47;;
20844;SDS011;10583;49.084;8.646;2023-07-29T02:56:16;1.50;;;1.50;;
20844;SDS011;10583;49.084;8.646;2023-07-29T02:58:43;1.40;;;1.40;;
20844;SDS011;10583;49.084;8.646;2023-07-29T03:01:10;1.27;;;1.27;;
20844;SDS011;10583;49.084;8.646;2023-07-29T03:03:36;1.40;;;1.40;;
20844;SDS011;10583;49.084;8.646;2023-07-29T03:06:06;1.40;;;1.40;;
20844;SDS011;10583;49.084;8.646;2023-07-29T03:08:33;1.40;;;1.40;;
20844;SDS011;10583;49.084;8.646;2023-07-29T03:11:04;1.40;;;1.40;;
20844;SDS011;10583;49.084;8.646;2023-07-29T03:13:32;1.57;;;1.57;;
20844;SDS011;10583;49.084;8.646;2023-07-29T03:16:04;1.80;;;1.80;;
20844;SDS011;10583;49.084;8.646;2023-07-29T03:18:31;1.50;;;1.50;;
20844;SDS011;10583;49.084;8.646;2023-07-29T03:20:57;1.40;;;1.40;;
20844;SDS011;10583;49.084;8.646;2023-07-29T03:23:25;1.53;;;1.53;;
20844;SDS011;10583;49.084;8.646;2023-07-29T03:25:54;1.90;;;1.90;;
20844;SDS011;10583;49.084;8.646;2023-07-29T03:28:23;1.70;;;1.70;;
20844;SDS011;10583;49.084;8.646;2023-07-29T03:30:50;1.57;;;1.57;;
20844;SDS011;10583;49.084;8.646;2023-07-29T03:33:16;1.50;;;1.50;;
20844;SDS011;10583;49.084;8.646;2023-07-29T03:35:43;1.80;;;1.80;;
20844;SDS011;10583;49.084;8.646;2023-07-29T03:38:10;1.97;;;1.97;;
20844;SDS011;10583;49.084;8.646;2023-07-29T03:40:38;1.50;;;1.50;;
20844;SDS011;10583;49.084;8.646;2023-07-29T03:43:04;1.20;;;1.20;;
20844;SDS011;10583;49.084;8.646;2023-07-29T03:45:31;1.80;;;1.80;;
20844;SDS011;10583;49.084;8.646;2023-07-29T03:47:58;1.77;;;1.77;;
20844;SDS011;10583;49.084;8.646;2023-07-29T03:50:25;1.40;;;1.40;;
20844;SDS011;10583;49.084;8.646;2023-07-29T03:52:52;1.60;;;1.60;;
20844;SDS011;10583;49.084;8.646;2023-07-29T03:55:18;1.50;;;1.50;;
20844;SDS011;10583;49.084;8.646;2023-07-29T03:57:47;1.70;;;1.70;;
20844;SDS011;10583;49.084;8.646;2023-07-29T04:00:13;1.40;;;1.40;;
20844;SDS011;10583;49.084;8.646;2023-07-29T04:02:41;1.70;;;1.70;;
20844;SDS011;10583;49.084;8.646;2023-07-29T04:05:08;1.80;;;1.80;;
20844;SDS011;10583;49.084;8.646;2023-07-29T04:07:35;1.50;;;1.50;;
20844;SDS011;10583;49.084;8.646;2023-07-29T04:10:02;2.00;;;2.00;;
20844;SDS011;10583;49.084;8.646;2023-07-29T04:12:30;1.80;;;1.80;;
20844;SDS011;10583;49.084;8.646;2023-07-29T04:14:58;1.77;;;1.77;;
20844;SDS011;10583;49.084;8.646;2023-07-29T04:17:25;1.70;;;1.70;;
20844;SDS011;10583;49.084;8.646;2023-07-29T04:19:52;1.77;;;1.77;;
20844;SDS011;10583;49.084;8.646;2023-07-29T04:22:18;2.30;;;2.30;;
20844;SDS011;10583;49.084;8.646;2023-07-29T04:24:45;2.03;;;2.03;;
20844;SDS011;10583;49.084;8.646;2023-07-29T04:27:12;1.80;;;1.80;;
20844;SDS011;10583;49.084;8.646;2023-07-29T04:29:39;2.03;;;2.03;;
20844;SDS011;10583;49.084;8.646;2023-07-29T04:32:07;3.40;;;3.40;;
20844;SDS011;10583;49.084;8.646;2023-07-29T04:34:34;2.90;;;2.90;;
20844;SDS011;10583;49.084;8.646;2023-07-29T04:37:00;2.80;;;2.80;;
20844;SDS011;10583;49.084;8.646;2023-07-29T04:39:27;3.47;;;3.47;;
20844;SDS011;10583;49.084;8.646;2023-07-29T04:41:54;2.90;;;2.90;;
20844;SDS011;10583;49.084;8.646;2023-07-29T04:44:22;2.57;;;2.57;;
20844;SDS011;10583;49.084;8.646;2023-07-29T04:46:49;2.70;;;2.70;;
20844;SDS011;10583;49.084;8.646;2023-07-29T04:49:17;2.87;;;2.87;;
20844;SDS011;10583;49.084;8.646;2023-07-29T04:51:43;2.17;;;2.17;;
20844;SDS011;10583;49.084;8.646;2023-07-29T04:54:10;2.40;;;2.40;;
20844;SDS011;10583;49.084;8.646;2023-07-29T04:56:37;2.70;;;2.70;;
20844;SDS011;10583;49.084;8.646;2023-07-29T04:59:03;2.57;;;2.57;;
20844;SDS011;10583;49.084;8.646;2023-07-29T05:01:30;2.13;;;2.13;;
20844;SDS011;10583;49.084;8.646;2023-07-29T05:03:57;2.20;;;2.20;;
20844;SDS011;10583;49.084;8.646;2023-07-29T05:06:24;2.00;;;2.00;;
20844;SDS011;10583;49.084;8.646;2023-07-29T05:08:51;1.67;;;1.67;;
20844;SDS011;10583;49.084;8.646;2023-07-29T05:11:18;2.20;;;2.20;;
20844;SDS011;10583;49.084;8.646;2023-07-29T05:13:44;2.07;;;2.07;;
20844;SDS011;10583;49.084;8.646;2023-07-29T05:16:11;1.83;;;1.83;;
20844;SDS011;10583;49.084;8.646;2023-07-29T05:18:38;1.93;;;1.93;;
20844;SDS011;10583;49.084;8.646;2023-07-29T05:21:04;1.97;;;1.97;;
20844;SDS011;10583;49.084;8.646;2023-07-29T05:23:34;1.60;;;1.60;;
20844;SDS011;10583;49.084;8.646;2023-07-29T05:26:01;1.73;;;1.73;;
20844;SDS011;10583;49.084;8.646;2023-07-29T05:28:28;1.80;;;1.80;;
20844;SDS011;10583;49.084;8.646;2023-07-29T05:30:54;1.57;;;1.57;;
20844;SDS011;10583;49.084;8.646;2023-07-29T05:33:21;1.63;;;1.63;;
20844;SDS011;10583;49.084;8.646;2023-07-29T05:35:48;1.67;;;1.67;;
20844;SDS011;10583;49.084;8.646;2023-07-29T05:38:14;1.67;;;1.67;;
20844;SDS011;10583;49.084;8.646;2023-07-29T05:40:42;1.63;;;1.63;;
20844;SDS011;10583;49.084;8.646;2023-07-29T05:43:09;1.90;;;1.90;;
20844;SDS011;10583;49.084;8.646;2023-07-29T05:45:36;1.50;;;1.50;;
20844;SDS011;10583;49.084;8.646;2023-07-29T05:48:02;1.90;;;1.90;;
20844;SDS011;10583;49.084;8.646;2023-07-29T05:50:29;1.83;;;1.83;;
20844;SDS011;10583;49.084;8.646;2023-07-29T05:52:56;1.90;;;1.90;;
20844;SDS011;10583;49.084;8.646;2023-07-29T05:55:23;1.83;;;1.83;;
20844;SDS011;10583;49.084;8.646;2023-07-29T05:57:51;2.10;;;2.10;;
20844;SDS011;10583;49.084;8.646;2023-07-29T06:00:18;2.10;;;2.10;;
20844;SDS011;10583;49.084;8.646;2023-07-29T06:02:45;1.97;;;1.97;;
20844;SDS011;10583;49.084;8.646;2023-07-29T06:05:11;2.07;;;2.07;;
20844;SDS011;10583;49.084;8.646;2023-07-29T06:07:38;2.03;;;2.03;;
20844;SDS011;10583;49.084;8.646;2023-07-29T06:10:09;1.83;;;1.83;;
20844;SDS011;10583;49.084;8.646;2023-07-29T06:12:36;2.00;;;2.00;;
20844;SDS011;10583;49.084;8.646;2023-07-29T06:15:05;2.20;;;2.20;;
20844;SDS011;10583;49.084;8.646;2023-07-29T06:17:32;2.10;;;2.10;;
20844;SDS011;10583;49.084;8.646;2023-07-29T06:19:59;1.90;;;1.90;;
20844;SDS011;10583;49.084;8.646;2023-07-29T06:22:25;2.07;;;2.07;;
20844;SDS011;10583;49.084;8.646;2023-07-29T06:24:52;2.10;;;2.10;;
20844;SDS011;10583;49.084;8.646;2023-07-29T06:27:19;1.97;;;1.97;;
20844;SDS011;10583;49.084;8.646;2023-07-29T06:29:45;2.37;;;2.37;;
20844;SDS011;10583;49.084;8.646;2023-07-29T06:32:13;1.80;;;1.80;;
20844;SDS011;10583;49.084;8.646;2023-07-29T06:34:40;2.20;;;2.20;;
20844;SDS011;10583;49.084;8.646;2023-07-29T06:37:07;1.90;;;1.90;;
20844;SDS011;10583;49.084;8.646;2023-07-29T06:39:33;1.90;;;1.90;;
20844;SDS011;10583;49.084;8.646;2023-07-29T06:42:00;2.00;;;2.00;;
20844;SDS011;10583;49.084;8.646;2023-07-29T06:44:27;1.70;;;1.70;;
20844;SDS011;10583;49.084;8.646;2023-07-29T06:46:53;1.87;;;1.87;;
20844;SDS011;10583;49.084;8.646;2023-07-29T06:49:21;1.60;;;1.60;;
20844;SDS011;10583;49.084;8.646;2023-07-29T06:51:48;1.73;;;1.73;;
20844;SDS011;10583;49.084;8.646;2023-07-29T06:54:15;1.90;;;1.90;;
20844;SDS011;10583;49.084;8.646;2023-07-29T06:56:43;1.80;;;1.80;;
20844;SDS011;10583;49.084;8.646;2023-07-29T06:59:09;1.70;;;1.70;;
20844;SDS011;10583;49.084;8.646;2023-07-29T07:04:59;2.33;;;2.33;;
20844;SDS011;10583;49.084;8.646;2023-07-29T07:07:26;2.30;;;2.30;;
20844;SDS011;10583;49.084;8.646;2023-07-29T07:09:53;2.07;;;2.07;;
20844;SDS011;10583;49.084;8.646;2023-07-29T07:12:19;1.90;;;1.90;;
20844;SDS011;10583;49.084;8.646;2023-07-29T07:14:46;2.20;;;2.20;;
20844;SDS011;10583;49.084;8.646;2023-07-29T07:17:13;2.20;;;2.20;;
20844;SDS011;10583;49.084;8.646;2023-07-29T07:19:40;1.97;;;1.97;;
20844;SDS011;10583;49.084;8.646;2023-07-29T07:22:08;2.13;;;2.13;;
20844;SDS011;10583;49.084;8.646;2023-07-29T07:24:34;2.13;;;2.13;;
20844;SDS011;10583;49.084;8.646;2023-07-29T07:27:01;1.97;;;1.97;;
20844;SDS011;10583;49.084;8.646;2023-07-29T07:29:28;2.00;;;2.00;;
20844;SDS011;10583;49.084;8.646;2023-07-29T07:31:56;2.00;;;2.00;;
20844;SDS011;10583;49.084;8.646;2023-07-29T07:34:23;1.90;;;1.90;;
20844;SDS011;10583;49.084;8.646;2023-07-29T07:36:49;2.57;;;2.57;;
20844;SDS011;10583;49.084;8.646;2023-07-29T07:39:17;1.77;;;1.77;;
20844;SDS011;10583;49.084;8.646;2023-07-29T07:41:44;1.90;;;1.90;;
20844;SDS011;10583;49.084;8.646;2023-07-29T07:44:11;2.07;;;2.07;;
20844;SDS011;10583;49.084;8.646;2023-07-29T07:46:40;2.13;;;2.13;;
20844;SDS011;10583;49.084;8.646;2023-07-29T07:49:07;2.23;;;2.23;;
20844;SDS011;10583;49.084;8.646;2023-07-29T07:51:33;1.60;;;1.60;;
20844;SDS011;10583;49.084;8.646;2023-07-29T07:54:00;1.80;;;1.80;;
20844;SDS011;10583;49.084;8.646;2023-07-29T07:56:28;1.73;;;1.73;;
20844;SDS011;10583;49.084;8.646;2023-07-29T07:58:55;2.00;;;2.00;;
20844;SDS011;10583;49.084;8.646;2023-07-29T08:01:21;1.70;;;1.70;;
20844;SDS011;10583;49.084;8.646;2023-07-29T08:03:48;1.83;;;1.83;;
20844;SDS011;10583;49.084;8.646;2023-07-29T08:06:15;1.63;;;1.63;;
20844;SDS011;10583;49.084;8.646;2023-07-29T08:08:41;1.63;;;1.63;;
20844;SDS011;10583;49.084;8.646;2023-07-29T08:11:08;1.60;;;1.60;;
20844;SDS011;10583;49.084;8.646;2023-07-29T08:13:36;1.57;;;1.57;;
20844;SDS011;10583;49.084;8.646;2023-07-29T08:16:03;1.43;;;1.43;;
20844;SDS011;10583;49.084;8.646;2023-07-29T08:18:29;1.50;;;1.50;;
20844;SDS011;10583;49.084;8.646;2023-07-29T08:20:57;1.60;;;1.60;;
20844;SDS011;10583;49.084;8.646;2023-07-29T08:23:27;1.87;;;1.87;;
20844;SDS011;10583;49.084;8.646;2023-07-29T08:25:56;1.87;;;1.87;;
20844;SDS011;10583;49.084;8.646;2023-07-29T08:28:26;1.87;;;1.87;;
20844;SDS011;10583;49.084;8.646;2023-07-29T08:30:55;1.80;;;1.80;;
20844;SDS011;10583;49.084;8.646;2023-07-29T08:33:22;2.03;;;2.03;;
20844;SDS011;10583;49.084;8.646;2023-07-29T08:35:49;1.60;;;1.60;;
20844;SDS011;10583;49.084;8.646;2023-07-29T08:38:16;1.70;;;1.70;;
20844;SDS011;10583;49.084;8.646;2023-07-29T08:40:44;1.60;;;1.60;;
20844;SDS011;10583;49.084;8.646;2023-07-29T08:43:16;2.00;;;2.00;;
20844;SDS011;10583;49.084;8.646;2023-07-29T08:45:44;1.50;;;1.50;;
20844;SDS011;10583;49.084;8.646;2023-07-29T08:48:15;1.90;;;1.90;;
20844;SDS011;10583;49.084;8.646;2023-07-29T08:50:52;1.67;;;1.67;;
20844;SDS011;10583;49.084;8.646;2023-07-29T08:53:22;1.80;;;1.80;;
20844;SDS011;10583;49.084;8.646;2023-07-29T08:55:51;1.67;;;1.67;;
20844;SDS011;10583;49.084;8.646;2023-07-29T08:58:21;1.43;;;1.43;;
20844;SDS011;10583;49.084;8.646;2023-07-29T09:00:51;1.63;;;1.63;;
20844;SDS011;10583;49.084;8.646;2023-07-29T09:03:21;1.67;;;1.67;;
20844;SDS011;10583;49.084;8.646;2023-07-29T09:05:50;1.70;;;1.70;;
20844;SDS011;10583;49.084;8.646;2023-07-29T09:08:20;1.50;;;1.50;;
20844;SDS011;10583;49.084;8.646;2023-07-29T09:10:49;1.30;;;1.30;;
20844;SDS011;10583;49.084;8.646;2023-07-29T09:13:18;1.50;;;1.50;;
20844;SDS011;10583;49.084;8.646;2023-07-29T09:15:46;1.50;;;1.50;;
20844;SDS011;10583;49.084;8.646;2023-07-29T09:18:14;1.50;;;1.50;;
20844;SDS011;10583;49.084;8.646;2023-07-29T09:20:44;1.42;;;1.42;;
20844;SDS011;10583;49.084;8.646;2023-07-29T09:23:12;1.40;;;1.40;;
20844;SDS011;10583;49.084;8.646;2023-07-29T09:25:39;1.40;;;1.40;;
20844;SDS011;10583;49.084;8.646;2023-07-29T09:28:09;1.45;;;1.45;;
20844;SDS011;10583;49.084;8.646;2023-07-29T09:30:37;1.40;;;1.40;;
20844;SDS011;10583;49.084;8.646;2023-07-29T09:33:04;1.53;;;1.53;;
20844;SDS011;10583;49.084;8.646;2023-07-29T09:35:32;1.40;;;1.40;;
20844;SDS011;10583;49.084;8.646;2023-07-29T09:38:01;1.40;;;1.40;;
20844;SDS011;10583;49.084;8.646;2023-07-29T09:40:27;1.10;;;1.10;;
20844;SDS011;10583;49.084;8.646;2023-07-29T09:43:00;1.40;;;1.40;;
20844;SDS011;10583;49.084;8.646;2023-07-29T09:45:27;1.50;;;1.50;;
20844;SDS011;10583;49.084;8.646;2023-07-29T09:47:54;1.40;;;1.40;;
20844;SDS011;10583;49.084;8.646;2023-07-29T09:50:23;1.17;;;1.17;;
20844;SDS011;10583;49.084;8.646;2023-07-29T09:52:50;1.10;;;1.10;;
20844;SDS011;10583;49.084;8.646;2023-07-29T09:55:20;1.20;;;1.20;;
20844;SDS011;10583;49.084;8.646;2023-07-29T09:57:52;1.08;;;1.08;;
20844;SDS011;10583;49.084;8.646;2023-07-29T10:00:19;1.23;;;1.23;;
20844;SDS011;10583;49.084;8.646;2023-07-29T10:02:47;1.30;;;1.30;;
20844;SDS011;10583;49.084;8.646;2023-07-29T10:05:13;1.10;;;1.10;;
20844;SDS011;10583;49.084;8.646;2023-07-29T10:07:41;1.23;;;1.23;;
20844;SDS011;10583;49.084;8.646;2023-07-29T10:10:08;1.00;;;1.00;;
20844;SDS011;10583;49.084;8.646;2023-07-29T10:12:36;1.05;;;1.05;;
20844;SDS011;10583;49.084;8.646;2023-07-29T10:15:07;1.10;;;1.10;;
20844;SDS011;10583;49.084;8.646;2023-07-29T10:17:35;1.20;;;1.20;;
20844;SDS011;10583;49.084;8.646;2023-07-29T10:20:03;1.02;;;1.02;;
20844;SDS011;10583;49.084;8.646;2023-07-29T10:22:33;1.23;;;1.23;;
20844;SDS011;10583;49.084;8.646;2023-07-29T10:25:03;1.30;;;1.30;;
20844;SDS011;10583;49.084;8.646;2023-07-29T10:27:33;1.42;;;1.42;;
20844;SDS011;10583;49.084;8.646;2023-07-29T10:30:07;1.23;;;1.23;;
20844;SDS011;10583;49.084;8.646;2023-07-29T10:32:34;1.17;;;1.17;;
20844;SDS011;10583;49.084;8.646;2023-07-29T10:35:01;1.30;;;1.30;;
20844;SDS011;10583;49.084;8.646;2023-07-29T10:37:28;1.10;;;1.10;;
20844;SDS011;10583;49.084;8.646;2023-07-29T10:39:55;1.15;;;1.15;;
20844;SDS011;10583;49.084;8.646;2023-07-29T10:42:22;1.20;;;1.20;;
20844;SDS011;10583;49.084;8.646;2023-07-29T10:44:50;1.25;;;1.25;;
20844;SDS011;10583;49.084;8.646;2023-07-29T10:47:19;1.10;;;1.10;;
20844;SDS011;10583;49.084;8.646;2023-07-29T10:49:48;1.00;;;1.00;;
20844;SDS011;10583;49.084;8.646;2023-07-29T10:52:27;1.05;;;1.05;;
20844;SDS011;10583;49.084;8.646;2023-07-29T10:54:55;1.23;;;1.23;;
20844;SDS011;10583;49.084;8.646;2023-07-29T10:57:30;0.93;;;0.93;;
20844;SDS011;10583;49.084;8.646;2023-07-29T10:59:58;1.02;;;1.02;;
20844;SDS011;10583;49.084;8.646;2023-07-29T11:02:28;0.90;;;0.90;;
20844;SDS011;10583;49.084;8.646;2023-07-29T11:04:56;0.95;;;0.95;;
20844;SDS011;10583;49.084;8.646;2023-07-29T11:07:24;0.90;;;0.90;;
20844;SDS011;10583;49.084;8.646;2023-07-29T11:09:58;0.88;;;0.88;;
20844;SDS011;10583;49.084;8.646;2023-07-29T11:12:36;1.08;;;1.08;;
20844;SDS011;10583;49.084;8.646;2023-07-29T11:15:13;0.85;;;0.85;;
20844;SDS011;10583;49.084;8.646;2023-07-29T11:17:45;1.10;;;1.10;;
20844;SDS011;10583;49.084;8.646;2023-07-29T11:20:14;0.95;;;0.95;;
20844;SDS011;10583;49.084;8.646;2023-07-29T11:22:41;0.90;;;0.90;;
20844;SDS011;10583;49.084;8.646;2023-07-29T11:25:08;1.00;;;1.00;;
20844;SDS011;10583;49.084;8.646;2023-07-29T11:27:36;0.95;;;0.95;;
20844;SDS011;10583;49.084;8.646;2023-07-29T11:30:04;1.13;;;1.13;;
20844;SDS011;10583;49.084;8.646;2023-07-29T11:32:35;1.00;;;1.00;;
20844;SDS011;10583;49.084;8.646;2023-07-29T11:35:03;0.90;;;0.90;;
20844;SDS011;10583;49.084;8.646;2023-07-29T11:37:32;0.98;;;0.98;;
20844;SDS011;10583;49.084;8.646;2023-07-29T11:40:00;1.10;;;1.10;;
20844;SDS011;10583;49.084;8.646;2023-07-29T11:42:27;1.10;;;1.10;;
20844;SDS011;10583;49.084;8.646;2023-07-29T11:44:56;1.00;;;1.00;;
20844;SDS011;10583;49.084;8.646;2023-07-29T11:47:24;0.90;;;0.90;;
20844;SDS011;10583;49.084;8.646;2023-07-29T11:49:53;1.30;;;1.30;;
20844;SDS011;10583;49.084;8.646;2023-07-29T11:52:19;0.90;;;0.90;;
20844;SDS011;10583;49.084;8.646;2023-07-29T11:54:47;1.10;;;1.10;;
20844;SDS011;10583;49.084;8.646;2023-07-29T11:57:14;1.20;;;1.20;;
20844;SDS011;10583;49.084;8.646;2023-07-29T11:59:43;1.10;;;1.10;;
20844;SDS011;10583;49.084;8.646;2023-07-29T12:02:10;1.23;;;1.23;;
20844;SDS011;10583;49.084;8.646;2023-07-29T12:04:38;1.25;;;1.25;;
20844;SDS011;10583;49.084;8.646;2023-07-29T12:07:08;1.10;;;1.10;;
20844;SDS011;10583;49.084;8.646;2023-07-29T12:09:35;1.50;;;1.50;;
20844;SDS011;10583;49.084;8.646;2023-07-29T12:12:02;1.10;;;1.10;;
20844;SDS011;10583;49.084;8.646;2023-07-29T12:14:30;1.20;;;1.20;;
20844;SDS011;10583;49.084;8.646;2023-07-29T12:16:59;1.30;;;1.30;;
20844;SDS011;10583;49.084;8.646;2023-07-29T12:19:30;1.70;;;1.70;;
20844;SDS011;10583;49.084;8.646;2023-07-29T12:21:57;1.40;;;1.40;;
20844;SDS011;10583;49.084;8.646;2023-07-29T12:24:25;1.48;;;1.48;;
20844;SDS011;10583;49.084;8.646;2023-07-29T12:26:52;1.52;;;1.52;;
20844;SDS011;10583;49.084;8.646;2023-07-29T12:29:19;1.10;;;1.10;;
20844;SDS011;10583;49.084;8.646;2023-07-29T12:31:46;1.30;;;1.30;;
20844;SDS011;10583;49.084;8.646;2023-07-29T12:34:16;1.40;;;1.40;;
20844;SDS011;10583;49.084;8.646;2023-07-29T12:36:45;1.40;;;1.40;;
20844;SDS011;10583;49.084;8.646;2023-07-29T12:39:16;1.10;;;1.10;;
20844;SDS011;10583;49.084;8.646;2023-07-29T12:41:45;1.30;;;1.30;;
20844;SDS011;10583;49.084;8.646;2023-07-29T12:44:13;1.30;;;1.30;;
20844;SDS011;10583;49.084;8.646;2023-07-29T12:46:40;1.20;;;1.20;;
20844;SDS011;10583;49.084;8.646;2023-07-29T12:49:06;1.70;;;1.70;;
20844;SDS011;10583;49.084;8.646;2023-07-29T12:51:33;1.73;;;1.73;;
20844;SDS011;10583;49.084;8.646;2023-07-29T12:54:01;3.08;;;3.08;;
20844;SDS011;10583;49.084;8.646;2023-07-29T12:56:29;1.50;;;1.50;;
20844;SDS011;10583;49.084;8.646;2023-07-29T12:58:57;1.98;;;1.98;;
20844;SDS011;10583;49.084;8.646;2023-07-29T13:01:24;2.20;;;2.20;;
20844;SDS011;10583;49.084;8.646;2023-07-29T13:03:51;2.30;;;2.30;;
20844;SDS011;10583;49.084;8.646;2023-07-29T13:06:18;1.92;;;1.92;;
20844;SDS011;10583;49.084;8.646;2023-07-29T13:08:45;1.40;;;1.40;;
20844;SDS011;10583;49.084;8.646;2023-07-29T13:11:13;1.65;;;1.65;;
20844;SDS011;10583;49.084;8.646;2023-07-29T13:13:40;1.50;;;1.50;;
20844;SDS011;10583;49.084;8.646;2023-07-29T13:16:08;1.60;;;1.60;;
20844;SDS011;10583;49.084;8.646;2023-07-29T13:18:35;1.80;;;1.80;;
20844;SDS011;10583;49.084;8.646;2023-07-29T13:21:02;1.40;;;1.40;;
20844;SDS011;10583;49.084;8.646;2023-07-29T13:23:28;1.40;;;1.40;;
20844;SDS011;10583;49.084;8.646;2023-07-29T13:25:55;1.40;;;1.40;;
20844;SDS011;10583;49.084;8.646;2023-07-29T13:28:22;1.55;;;1.55;;
20844;SDS011;10583;49.084;8.646;2023-07-29T13:30:48;1.45;;;1.45;;
20844;SDS011;10583;49.084;8.646;2023-07-29T13:33:17;1.20;;;1.20;;
20844;SDS011;10583;49.084;8.646;2023-07-29T13:35:43;1.30;;;1.30;;
20844;SDS011;10583;49.084;8.646;2023-07-29T13:38:10;1.27;;;1.27;;
20844;SDS011;10583;49.084;8.646;2023-07-29T13:40:37;1.20;;;1.20;;
20844;SDS011;10583;49.084;8.646;2023-07-29T13:43:03;1.50;;;1.50;;
20844;SDS011;10583;49.084;8.646;2023-07-29T13:45:30;1.42;;;1.42;;
20844;SDS011;10583;49.084;8.646;2023-07-29T13:47:57;1.30;;;1.30;;
20844;SDS011;10583;49.084;8.646;2023-07-29T13:50:25;1.40;;;1.40;;
20844;SDS011;10583;49.084;8.646;2023-07-29T13:52:52;1.25;;;1.25;;
20844;SDS011;10583;49.084;8.646;2023-07-29T13:55:18;1.38;;;1.38;;
20844;SDS011;10583;49.084;8.646;2023-07-29T13:57:45;1.20;;;1.20;;
20844;SDS011;10583;49.084;8.646;2023-07-29T14:00:13;1.10;;;1.10;;
20844;SDS011;10583;49.084;8.646;2023-07-29T14:02:40;1.20;;;1.20;;
20844;SDS011;10583;49.084;8.646;2023-07-29T14:05:07;1.50;;;1.50;;
20844;SDS011;10583;49.084;8.646;2023-07-29T14:07:35;1.70;;;1.70;;
20844;SDS011;10583;49.084;8.646;2023-07-29T14:10:02;1.27;;;1.27;;
20844;SDS011;10583;49.084;8.646;2023-07-29T14:12:29;1.60;;;1.60;;
20844;SDS011;10583;49.084;8.646;2023-07-29T14:14:56;1.30;;;1.30;;
20844;SDS011;10583;49.084;8.646;2023-07-29T14:17:23;1.10;;;1.10;;
20844;SDS011;10583;49.084;8.646;2023-07-29T14:19:49;1.20;;;1.20;;
20844;SDS011;10583;49.084;8.646;2023-07-29T14:22:16;1.40;;;1.40;;
20844;SDS011;10583;49.084;8.646;2023-07-29T14:24:44;1.58;;;1.58;;
20844;SDS011;10583;49.084;8.646;2023-07-29T14:27:11;1.20;;;1.20;;
20844;SDS011;10583;49.084;8.646;2023-07-29T14:29:37;1.42;;;1.42;;
20844;SDS011;10583;49.084;8.646;2023-07-29T14:32:04;1.40;;;1.40;;
20844;SDS011;10583;49.084;8.646;2023-07-29T14:34:31;1.30;;;1.30;;
20844;SDS011;10583;49.084;8.646;2023-07-29T14:36:58;1.20;;;1.20;;
20844;SDS011;10583;49.084;8.646;2023-07-29T14:39:24;1.60;;;1.60;;
20844;SDS011;10583;49.084;8.646;2023-07-29T14:41:52;1.35;;;1.35;;
20844;SDS011;10583;49.084;8.646;2023-07-29T14:44:19;1.30;;;1.30;;
20844;SDS011;10583;49.084;8.646;2023-07-29T14:46:45;1.40;;;1.40;;
20844;SDS011;10583;49.084;8.646;2023-07-29T14:49:12;1.48;;;1.48;;
20844;SDS011;10583;49.084;8.646;2023-07-29T14:51:39;1.38;;;1.38;;
20844;SDS011;10583;49.084;8.646;2023-07-29T14:54:06;1.30;;;1.30;;